createdAt,value
2023-04-10T00:01:52.347Z,6.32
2023-04-10T00:04:40.127Z,6.32
2023-04-10T00:07:27.813Z,6.31
2023-04-10T00:10:15.242Z,6.29
2023-04-10T00:13:04.039Z,6.28
2023-04-10T00:15:51.524Z,6.28
2023-04-10T00:18:38.704Z,6.29
2023-04-10T00:21:27.272Z,6.33
2023-04-10T00:24:14.995Z,6.36
2023-04-10T00:27:02.786Z,6.38
2023-04-10T00:29:50.357Z,6.41
2023-04-10T00:32:37.987Z,6.40
2023-04-10T00:35:25.385Z,6.40
2023-04-10T00:38:13.185Z,6.40
2023-04-10T00:41:01.816Z,6.41
2023-04-10T00:43:49.555Z,6.43
2023-04-10T00:46:37.655Z,6.46
2023-04-10T00:49:25.530Z,6.52
2023-04-10T00:52:13.272Z,6.55
2023-04-10T00:55:01.667Z,6.52
2023-04-10T00:57:48.993Z,6.51
2023-04-10T01:00:36.250Z,6.52
2023-04-10T01:03:43.478Z,6.52
2023-04-10T01:06:46.785Z,6.51
2023-04-10T01:10:15.071Z,6.51
2023-04-10T01:13:16.275Z,6.52
2023-04-10T01:16:30.651Z,6.54
2023-04-10T01:19:53.731Z,6.54
2023-04-10T01:22:40.883Z,6.55
2023-04-10T01:25:31.254Z,6.53
2023-04-10T01:28:18.522Z,6.53
2023-04-10T01:31:10.629Z,6.53
2023-04-10T01:34:03.696Z,6.53
2023-04-10T01:40:03.835Z,6.54
2023-04-10T01:42:54.699Z,6.53
2023-04-10T01:45:48.713Z,6.53
2023-04-10T01:48:36.565Z,6.55
2023-04-10T01:51:24.520Z,6.60
2023-04-10T01:54:12.620Z,6.66
2023-04-10T01:57:01.706Z,6.69
2023-04-10T01:59:50.549Z,6.69
2023-04-10T02:02:38.054Z,6.71
2023-04-10T02:05:33.637Z,6.72
2023-04-10T02:08:35.944Z,6.72
2023-04-10T02:11:33.179Z,6.72
2023-04-10T02:14:21.836Z,6.72
2023-04-10T02:17:13.439Z,6.74
2023-04-10T02:20:02.236Z,6.74
2023-04-10T02:22:50.068Z,6.75
2023-04-10T02:25:37.325Z,6.72
2023-04-10T02:28:25.470Z,6.73
2023-04-10T02:31:12.789Z,6.73
2023-04-10T02:34:00.493Z,6.74
2023-04-10T02:36:47.922Z,6.73
2023-04-10T02:39:36.463Z,6.72
2023-04-10T02:42:23.882Z,6.72
2023-04-10T02:45:11.709Z,6.70
2023-04-10T02:48:02.360Z,6.69
2023-04-10T02:50:55.949Z,6.69
2023-04-10T02:53:43.675Z,6.69
2023-04-10T02:56:34.179Z,6.70
2023-04-10T02:59:22.819Z,6.72
2023-04-10T03:02:10.995Z,6.74
2023-04-10T03:05:01.429Z,6.73
2023-04-10T03:07:48.924Z,6.73
2023-04-10T03:10:36.728Z,6.71
2023-04-10T03:13:24.069Z,6.69
2023-04-10T03:16:11.333Z,6.67
2023-04-10T03:18:59.218Z,6.66
2023-04-10T03:21:46.802Z,6.65
2023-04-10T03:24:34.115Z,6.64
2023-04-10T03:27:22.308Z,6.64
2023-04-10T03:30:10.294Z,6.66
2023-04-10T03:33:00.824Z,6.71
2023-04-10T03:35:48.186Z,6.75
2023-04-10T03:38:35.755Z,6.77
2023-04-10T03:41:25.409Z,6.80
2023-04-10T03:44:13.036Z,6.83
2023-04-10T03:47:00.660Z,6.82
2023-04-10T03:49:48.676Z,6.79
2023-04-10T03:52:36.386Z,6.74
2023-04-10T03:55:25.761Z,6.73
2023-04-10T03:58:13.124Z,6.67
2023-04-10T04:01:00.355Z,6.64
2023-04-10T04:03:55.365Z,6.60
2023-04-10T04:07:00.985Z,6.59
2023-04-10T04:10:26.669Z,6.57
2023-04-10T04:13:23.788Z,6.59
2023-04-10T04:16:16.410Z,6.61
2023-04-10T04:19:12.017Z,6.63
2023-04-10T04:22:05.410Z,6.63
2023-04-10T04:25:11.206Z,6.69
2023-04-10T04:28:29.572Z,6.70
2023-04-10T04:31:31.957Z,6.70
2023-04-10T04:34:43.565Z,6.70
2023-04-10T04:37:57.861Z,6.76
2023-04-10T04:41:05.743Z,6.78
2023-04-10T04:44:21.621Z,6.78
2023-04-10T04:47:19.200Z,6.79
2023-04-10T04:50:35.972Z,6.88
2023-04-10T04:53:36.610Z,6.95
2023-04-10T04:56:42.360Z,6.92
2023-04-10T04:59:44.508Z,6.88
2023-04-10T05:03:00.930Z,6.90
2023-04-10T05:06:07.286Z,6.92
2023-04-10T05:09:08.159Z,6.88
2023-04-10T05:12:22.941Z,6.91
2023-04-10T05:15:29.012Z,6.99
2023-04-10T05:18:32.420Z,7.07
2023-04-10T05:21:32.526Z,7.11
2023-04-10T05:24:42.327Z,7.14
2023-04-10T05:27:35.771Z,7.22
2023-04-10T05:30:24.091Z,7.35
2023-04-10T05:33:29.291Z,7.41
2023-04-10T05:36:31.552Z,7.44
2023-04-10T05:39:24.820Z,7.44
2023-04-10T05:42:12.839Z,7.43
2023-04-10T05:45:10.584Z,7.42
2023-04-10T05:48:16.593Z,7.42
2023-04-10T05:51:24.181Z,7.45
2023-04-10T05:54:30.431Z,7.49
2023-04-10T05:57:47.818Z,7.53
2023-04-10T06:00:55.522Z,7.55
2023-04-10T06:04:01.867Z,7.55
2023-04-10T06:06:50.218Z,7.55
2023-04-10T06:09:40.428Z,7.60
2023-04-10T06:12:29.986Z,7.67
2023-04-10T06:15:18.005Z,7.72
2023-04-10T06:18:05.498Z,7.80
2023-04-10T06:20:52.716Z,7.79
2023-04-10T06:23:40.215Z,7.80
2023-04-10T06:26:27.692Z,7.83
2023-04-10T06:29:15.957Z,7.81
2023-04-10T06:32:04.325Z,7.81
2023-04-10T06:34:55.254Z,7.85
2023-04-10T06:37:43.314Z,7.92
2023-04-10T06:40:33.332Z,7.97
2023-04-10T06:43:20.826Z,8.07
2023-04-10T06:46:09.225Z,8.14
2023-04-10T06:48:56.847Z,8.20
2023-04-10T06:51:45.515Z,8.27
2023-04-10T06:54:32.819Z,8.32
2023-04-10T06:57:20.537Z,8.40
2023-04-10T07:00:08.900Z,8.46
2023-04-10T07:02:56.256Z,8.50
2023-04-10T07:05:43.722Z,8.52
2023-04-10T07:08:31.232Z,8.48
2023-04-10T07:11:18.617Z,8.49
2023-04-10T07:14:06.027Z,8.53
2023-04-10T07:16:53.628Z,8.56
2023-04-10T07:19:40.973Z,8.60
2023-04-10T07:22:28.277Z,8.61
2023-04-10T07:25:16.057Z,8.68
2023-04-10T07:28:03.537Z,8.71
2023-04-10T07:30:51.096Z,8.75
2023-04-10T07:33:38.941Z,8.86
2023-04-10T07:36:26.431Z,8.94
2023-04-10T07:39:14.258Z,9.04
2023-04-10T07:42:01.542Z,9.13
2023-04-10T07:44:48.779Z,9.13
2023-04-10T07:47:36.121Z,9.14
2023-04-10T07:50:23.475Z,9.17
2023-04-10T07:53:10.821Z,9.20
2023-04-10T07:55:58.373Z,9.22
2023-04-10T07:58:46.202Z,9.32
2023-04-10T08:01:33.913Z,9.48
2023-04-10T08:04:21.595Z,9.62
2023-04-10T08:07:09.288Z,9.67
2023-04-10T08:09:56.691Z,9.67
2023-04-10T08:12:43.956Z,9.68
2023-04-10T08:15:31.352Z,9.73
2023-04-10T08:18:18.490Z,9.83
2023-04-10T08:21:06.213Z,9.94
2023-04-10T08:23:55.057Z,10.08
2023-04-10T08:26:42.286Z,10.19
2023-04-10T08:29:29.614Z,10.23
2023-04-10T08:32:17.146Z,10.27
2023-04-10T08:35:05.102Z,10.20
2023-04-10T08:38:07.724Z,10.20
2023-04-10T08:41:00.341Z,10.50
2023-04-10T08:43:49.144Z,10.76
2023-04-10T08:46:41.519Z,10.85
2023-04-10T08:49:44.208Z,10.93
2023-04-10T08:52:35.421Z,10.94
2023-04-10T08:55:23.385Z,10.90
2023-04-10T08:58:13.117Z,10.97
2023-04-10T09:01:01.283Z,11.19
2023-04-10T09:03:48.795Z,11.44
2023-04-10T09:06:36.219Z,11.58
2023-04-10T09:09:23.346Z,11.73
2023-04-10T09:12:13.375Z,11.94
2023-04-10T09:15:00.766Z,12.14
2023-04-10T09:17:55.008Z,12.24
2023-04-10T09:20:42.422Z,12.32
2023-04-10T09:23:29.676Z,12.45
2023-04-10T09:26:26.110Z,12.60
2023-04-10T09:29:16.227Z,12.75
2023-04-10T09:32:03.766Z,12.80
2023-04-10T09:34:53.395Z,12.74
2023-04-10T09:37:41.887Z,12.73
2023-04-10T09:40:29.294Z,12.82
2023-04-10T09:43:25.216Z,12.94
2023-04-10T09:46:26.065Z,12.98
2023-04-10T09:49:13.368Z,13.08
2023-04-10T09:52:17.842Z,13.13
2023-04-10T09:55:09.131Z,13.32
2023-04-10T09:57:58.056Z,13.48
2023-04-10T10:00:47.827Z,13.55
2023-04-10T10:03:35.480Z,13.60
2023-04-10T10:06:22.994Z,13.63
2023-04-10T10:09:12.183Z,13.69
2023-04-10T10:12:00.634Z,13.74
2023-04-10T10:15:00.169Z,13.61
2023-04-10T10:18:00.075Z,13.66
2023-04-10T10:20:49.719Z,13.56
2023-04-10T10:23:38.182Z,13.72
2023-04-10T10:26:25.635Z,13.76
2023-04-10T10:29:15.171Z,13.67
2023-04-10T10:32:03.897Z,13.80
2023-04-10T10:34:52.519Z,14.09
2023-04-10T10:37:40.643Z,14.33
2023-04-10T10:40:46.853Z,14.30
2023-04-10T10:43:52.308Z,14.44
2023-04-10T10:47:21.358Z,14.56
2023-04-10T10:50:09.113Z,14.71
2023-04-10T10:52:57.092Z,14.82
2023-04-10T10:55:44.795Z,14.81
2023-04-10T10:58:52.490Z,14.57
2023-04-10T11:02:16.279Z,14.31
2023-04-10T11:05:03.800Z,14.26
2023-04-10T11:08:00.882Z,14.44
2023-04-10T11:11:04.974Z,14.46
2023-04-10T11:13:52.295Z,14.36
2023-04-10T11:16:41.126Z,14.45
2023-04-10T11:19:28.667Z,14.76
2023-04-10T11:22:16.130Z,14.67
2023-04-10T11:25:09.644Z,14.56
2023-04-10T11:27:56.958Z,14.53
2023-04-10T11:30:44.274Z,14.56
2023-04-10T11:33:31.716Z,14.83
2023-04-10T11:36:19.792Z,15.02
2023-04-10T11:39:09.082Z,15.32
2023-04-10T11:41:57.132Z,15.58
2023-04-10T11:44:44.802Z,15.58
2023-04-10T11:47:32.785Z,15.65
2023-04-10T11:50:20.874Z,15.48
2023-04-10T11:53:21.348Z,15.30
2023-04-10T11:56:21.470Z,15.15
2023-04-10T11:59:10.289Z,15.28
2023-04-10T12:02:14.153Z,15.42
2023-04-10T12:05:02.535Z,15.57
2023-04-10T12:07:50.081Z,15.60
2023-04-10T12:10:46.945Z,15.46
2023-04-10T12:16:39.544Z,15.05
2023-04-10T12:19:27.271Z,14.95
2023-04-10T12:22:15.340Z,14.80
2023-04-10T12:25:02.768Z,14.65
2023-04-10T12:27:51.075Z,14.60
2023-04-10T12:30:46.330Z,14.78
2023-04-10T12:33:33.809Z,15.02
2023-04-10T12:36:21.971Z,15.29
2023-04-10T12:39:22.761Z,15.48
2023-04-10T12:42:14.665Z,15.66
2023-04-10T12:45:03.023Z,15.87
2023-04-10T12:47:53.661Z,16.03
2023-04-10T12:50:49.178Z,15.98
2023-04-10T12:53:44.282Z,15.75
2023-04-10T12:56:47.066Z,15.70
2023-04-10T12:59:34.562Z,15.82
2023-04-10T13:02:23.100Z,15.96
2023-04-10T13:05:10.794Z,16.12
2023-04-10T13:07:58.662Z,16.19
2023-04-10T13:10:46.082Z,16.47
2023-04-10T13:13:33.623Z,16.67
2023-04-10T13:16:20.790Z,16.66
2023-04-10T13:19:08.625Z,16.61
2023-04-10T13:21:55.764Z,16.55
2023-04-10T13:24:43.966Z,16.55
2023-04-10T13:27:31.072Z,16.61
2023-04-10T13:30:18.647Z,16.64
2023-04-10T13:33:05.983Z,16.58
2023-04-10T13:35:53.705Z,16.70
2023-04-10T13:38:42.681Z,16.87
2023-04-10T13:41:30.711Z,16.95
2023-04-10T13:44:17.964Z,16.86
2023-04-10T13:47:05.657Z,16.90
2023-04-10T13:49:52.874Z,16.91
2023-04-10T13:52:40.436Z,16.96
2023-04-10T13:55:27.584Z,17.03
2023-04-10T13:58:15.555Z,17.15
2023-04-10T14:01:02.797Z,17.15
2023-04-10T14:03:50.587Z,17.10
2023-04-10T14:06:38.059Z,17.02
2023-04-10T14:09:27.455Z,16.88
2023-04-10T14:12:18.716Z,16.68
2023-04-10T14:15:06.822Z,16.69
2023-04-10T14:17:53.992Z,16.69
2023-04-10T14:20:41.669Z,16.59
2023-04-10T14:23:28.800Z,16.53
2023-04-10T14:26:16.165Z,16.38
2023-04-10T14:29:03.426Z,16.14
2023-04-10T14:31:57.619Z,16.00
2023-04-10T14:34:45.443Z,15.79
2023-04-10T14:37:32.808Z,15.63
2023-04-10T14:40:20.192Z,15.48
2023-04-10T14:43:07.847Z,15.35
2023-04-10T14:45:54.978Z,15.25
2023-04-10T14:48:42.447Z,15.19
2023-04-10T14:51:29.629Z,15.12
2023-04-10T14:54:21.281Z,15.07
2023-04-10T14:57:09.145Z,15.04
2023-04-10T14:59:56.795Z,15.00
2023-04-10T15:02:44.812Z,14.98
2023-04-10T15:05:32.528Z,14.94
2023-04-10T15:08:19.678Z,14.90
2023-04-10T15:11:07.356Z,14.88
2023-04-10T15:13:54.796Z,14.84
2023-04-10T15:16:42.597Z,14.83
2023-04-10T15:19:29.875Z,14.84
2023-04-10T15:22:17.388Z,14.87
2023-04-10T15:25:04.930Z,14.88
2023-04-10T15:27:55.134Z,14.89
2023-04-10T15:30:45.374Z,14.92
2023-04-10T15:33:35.280Z,14.93
2023-04-10T15:36:22.374Z,14.92
2023-04-10T15:39:10.570Z,14.93
2023-04-10T15:41:59.542Z,14.97
2023-04-10T15:44:48.914Z,14.99
2023-04-10T15:47:36.592Z,14.99
2023-04-10T15:50:24.713Z,14.97
2023-04-10T15:53:11.791Z,14.91
2023-04-10T15:55:59.329Z,14.83
2023-04-10T15:58:46.437Z,14.79
2023-04-10T16:01:34.139Z,14.75
2023-04-10T16:04:21.412Z,14.72
2023-04-10T16:07:09.231Z,14.68
2023-04-10T16:09:57.651Z,14.65
2023-04-10T16:12:45.307Z,14.63
2023-04-10T16:15:37.148Z,14.62
2023-04-10T16:18:25.047Z,14.58
2023-04-10T16:21:15.778Z,14.52
2023-04-10T16:24:03.857Z,14.46
2023-04-10T16:26:53.406Z,14.41
2023-04-10T16:29:41.421Z,14.35
2023-04-10T16:32:36.050Z,14.29
2023-04-10T16:35:23.920Z,14.20
2023-04-10T16:38:11.087Z,14.13
2023-04-10T16:41:01.529Z,14.07
2023-04-10T16:43:48.701Z,13.99
2023-04-10T16:46:36.378Z,13.92
2023-04-10T16:49:23.977Z,13.86
2023-04-10T16:52:12.256Z,13.79
2023-04-10T16:54:59.478Z,13.71
2023-04-10T16:57:46.980Z,13.61
2023-04-10T17:00:34.158Z,13.53
2023-04-10T17:03:21.850Z,13.44
2023-04-10T17:06:09.110Z,13.33
2023-04-10T17:08:56.997Z,13.25
2023-04-10T17:11:44.644Z,13.15
2023-04-10T17:14:32.028Z,13.06
2023-04-10T17:17:19.196Z,13.02
2023-04-10T17:20:09.142Z,12.97
2023-04-10T17:22:56.264Z,12.88
2023-04-10T17:25:44.932Z,12.79
2023-04-10T17:28:33.734Z,12.71
2023-04-10T17:31:21.418Z,12.59
2023-04-10T17:34:08.582Z,12.43
2023-04-10T17:36:56.220Z,12.35
2023-04-10T17:39:43.467Z,12.27
2023-04-10T17:42:31.058Z,12.15
2023-04-10T17:45:18.327Z,12.07
2023-04-10T17:48:06.787Z,12.02
2023-04-10T17:50:54.218Z,11.96
2023-04-10T17:53:41.942Z,11.92
2023-04-10T17:56:29.206Z,11.87
2023-04-10T17:59:16.931Z,11.79
2023-04-10T18:02:04.307Z,11.72
2023-04-10T18:04:51.941Z,11.65
2023-04-10T18:07:39.353Z,11.53
2023-04-10T18:10:27.019Z,11.43
2023-04-10T18:13:14.313Z,11.36
2023-04-10T18:16:01.897Z,11.30
2023-04-10T18:18:49.192Z,11.27
2023-04-10T18:21:36.695Z,11.25
2023-04-10T18:24:23.908Z,11.20
2023-04-10T18:27:12.164Z,11.15
2023-04-10T18:29:59.647Z,11.10
2023-04-10T18:32:51.513Z,11.04
2023-04-10T18:35:38.938Z,10.94
2023-04-10T18:38:27.068Z,10.83
2023-04-10T18:41:14.329Z,10.74
2023-04-10T18:44:05.297Z,10.72
2023-04-10T18:47:01.228Z,10.69
2023-04-10T18:49:51.468Z,10.61
2023-04-10T18:52:38.701Z,10.59
2023-04-10T18:55:26.131Z,10.53
2023-04-10T18:58:13.350Z,10.49
2023-04-10T19:01:01.288Z,10.40
2023-04-10T19:03:50.765Z,10.30
2023-04-10T19:06:42.143Z,10.18
2023-04-10T19:09:29.616Z,10.09
2023-04-10T19:12:17.104Z,10.01
2023-04-10T19:15:07.363Z,9.96
2023-04-10T19:17:55.115Z,9.93
2023-04-10T19:20:51.004Z,9.90
2023-04-10T19:23:40.668Z,9.88
2023-04-10T19:26:27.912Z,9.80
2023-04-10T19:29:15.613Z,9.74
2023-04-10T19:32:03.656Z,9.63
2023-04-10T19:34:52.774Z,9.62
2023-04-10T19:37:40.056Z,9.63
2023-04-10T19:40:30.042Z,9.63
2023-04-10T19:43:17.679Z,9.61
2023-04-10T19:46:05.962Z,9.61
2023-04-10T19:48:54.026Z,9.59
2023-04-10T19:51:41.708Z,9.55
2023-04-10T19:54:29.286Z,9.49
2023-04-10T19:57:16.803Z,9.37
2023-04-10T20:00:06.262Z,9.30
2023-04-10T20:02:59.888Z,9.31
2023-04-10T20:05:47.636Z,9.33
2023-04-10T20:08:36.070Z,9.36
2023-04-10T20:11:29.751Z,9.32
2023-04-10T20:14:17.235Z,9.33
2023-04-10T20:17:04.667Z,9.36
2023-04-10T20:19:52.252Z,9.40
2023-04-10T20:22:39.509Z,9.41
2023-04-10T20:25:27.072Z,9.41
2023-04-10T20:28:15.756Z,9.40
2023-04-10T20:31:03.788Z,9.40
2023-04-10T20:33:53.112Z,9.38
2023-04-10T20:36:40.859Z,9.36
2023-04-10T20:39:28.135Z,9.27
2023-04-10T20:42:16.674Z,9.18
2023-04-10T20:45:04.220Z,9.16
2023-04-10T20:47:51.954Z,9.18
2023-04-10T20:50:45.337Z,9.19
2023-04-10T20:53:36.304Z,9.20
2023-04-10T20:56:29.814Z,9.19
2023-04-10T20:59:24.041Z,9.21
2023-04-10T21:02:12.602Z,9.21
2023-04-10T21:05:00.553Z,9.19
2023-04-10T21:07:47.777Z,9.14
2023-04-10T21:10:38.655Z,9.13
2023-04-10T21:13:25.972Z,9.11
2023-04-10T21:16:13.924Z,9.07
2023-04-10T21:19:01.226Z,8.96
2023-04-10T21:21:48.800Z,8.81
2023-04-10T21:24:36.353Z,8.66
2023-04-10T21:27:23.933Z,8.54
2023-04-10T21:30:11.266Z,8.51
2023-04-10T21:32:58.972Z,8.47
2023-04-10T21:35:46.225Z,8.44
2023-04-10T21:38:34.873Z,8.38
2023-04-10T21:41:22.086Z,8.31
2023-04-10T21:44:09.657Z,8.24
2023-04-10T21:46:56.794Z,8.17
2023-04-10T21:49:44.372Z,8.09
2023-04-10T21:52:31.514Z,8.05
2023-04-10T21:55:19.433Z,7.99
2023-04-10T21:58:06.751Z,7.96
2023-04-10T22:00:54.538Z,7.92
2023-04-10T22:03:41.885Z,7.89
2023-04-10T22:06:29.374Z,7.85
2023-04-10T22:09:17.176Z,7.79
2023-04-10T22:12:04.837Z,7.71
2023-04-10T22:14:52.014Z,7.64
2023-04-10T22:17:39.773Z,7.57
2023-04-10T22:20:26.960Z,7.51
2023-04-10T22:23:14.536Z,7.45
2023-04-10T22:26:01.749Z,7.33
2023-04-10T22:28:49.176Z,7.24
2023-04-10T22:31:36.432Z,7.20
2023-04-10T22:34:24.028Z,7.15
2023-04-10T22:37:11.263Z,7.08
2023-04-10T22:40:00.239Z,7.03
2023-04-10T22:42:48.022Z,6.99
2023-04-10T22:45:35.437Z,6.92
2023-04-10T22:48:22.776Z,6.85
2023-04-10T22:51:11.312Z,6.80
2023-04-10T22:53:58.465Z,6.71
2023-04-10T22:56:48.339Z,6.61
2023-04-10T22:59:36.514Z,6.50
2023-04-10T23:02:24.390Z,6.39
2023-04-10T23:05:11.640Z,6.33
2023-04-10T23:07:59.435Z,6.29
2023-04-10T23:10:46.666Z,6.27
2023-04-10T23:13:34.156Z,6.28
2023-04-10T23:16:21.374Z,6.28
2023-04-10T23:19:08.991Z,6.23
2023-04-10T23:21:56.574Z,6.15
2023-04-10T23:24:45.360Z,6.06
2023-04-10T23:27:32.918Z,5.97
2023-04-10T23:30:20.659Z,5.92
2023-04-10T23:33:07.866Z,5.86
2023-04-10T23:35:55.530Z,5.83
2023-04-10T23:38:42.664Z,5.76
2023-04-10T23:41:30.180Z,5.72
2023-04-10T23:44:17.354Z,5.65
2023-04-10T23:47:05.972Z,5.57
2023-04-10T23:49:54.196Z,5.53
2023-04-10T23:52:41.878Z,5.50
2023-04-10T23:55:29.135Z,5.49
2023-04-10T23:58:16.919Z,5.49
